Time;durP1;ratioP1;P1;durP2;ratioP2;P2;SDS_P1;SDS_P2;PMS_P1;PMS_P2;Temp;Humidity;BMP_temperature;BMP_pressure;BME280_temperature;BME280_humidity;BME280_pressure;Samples;Min_cycle;Max_cycle;Signal;HPM_P1;HPM_P2
2021/10/30 00:00:18;;;;;;;0.10;0.10;;;13.10;99.90;;;;;;5095726;28;20461;-82
2021/10/30 00:02:44;;;;;;;0.40;0.38;;;13.10;99.90;;;;;;5094592;28;20020;-82
2021/10/30 00:05:11;;;;;;;0.10;0.10;;;13.10;99.90;;;;;;5095677;28;20020;-82
2021/10/30 00:07:42;;;;;;;0.00;0.00;;;13.10;99.90;;;;;;5077292;28;20035;-82
2021/10/30 00:10:12;;;;;;;0.50;0.45;;;13.10;99.90;;;;;;5095498;28;20020;-82
2021/10/30 00:12:38;;;;;;;0.73;0.73;;;13.10;99.90;;;;;;5095187;28;20518;-82
2021/10/30 00:15:05;;;;;;;2.10;0.75;;;13.10;99.90;;;;;;5095100;28;20117;-81
2021/10/30 00:17:30;;;;;;;0.00;0.00;;;13.10;99.90;;;;;;5095061;28;20115;-82
2021/10/30 00:19:56;;;;;;;0.32;0.20;;;13.10;99.90;;;;;;5094471;28;20099;-82
2021/10/30 00:22:22;;;;;;;0.00;0.00;;;13.10;99.90;;;;;;5095184;28;20036;-82
2021/10/30 00:24:47;;;;;;;18.33;2.60;;;13.10;99.90;;;;;;5095297;28;20502;-82
2021/10/30 00:27:14;;;;;;;0.13;0.13;;;13.10;99.90;;;;;;5094002;28;20436;-82
2021/10/30 00:29:40;;;;;;;0.15;0.15;;;13.10;99.90;;;;;;5095287;28;20020;-82
2021/10/30 00:32:07;;;;;;;0.75;0.35;;;13.10;99.90;;;;;;5095025;28;20028;-82
2021/10/30 00:34:33;;;;;;;1.25;1.15;;;13.10;99.90;;;;;;5074589;28;20479;-82
2021/10/30 00:36:59;;;;;;;0.10;0.10;;;13.20;99.90;;;;;;5074896;28;20032;-83
2021/10/30 00:39:24;;;;;;;0.20;0.20;;;13.10;99.90;;;;;;5074745;28;20028;-83
2021/10/30 00:41:52;;;;;;;0.75;0.20;;;13.10;99.90;;;;;;5074379;28;20028;-82
2021/10/30 00:44:20;;;;;;;0.73;0.10;;;13.10;99.90;;;;;;5074577;28;20028;-82
2021/10/30 00:46:48;;;;;;;0.98;0.90;;;13.10;99.90;;;;;;5074484;28;20116;-82
2021/10/30 00:49:16;;;;;;;0.00;0.00;;;13.20;99.90;;;;;;5069764;28;20490;-82
2021/10/30 00:51:43;;;;;;;0.00;0.00;;;13.10;99.90;;;;;;5094215;28;20131;-82
2021/10/30 00:54:11;;;;;;;0.10;0.10;;;13.20;99.90;;;;;;5094654;28;20077;-82
2021/10/30 00:56:38;;;;;;;0.10;0.10;;;13.10;99.90;;;;;;5094149;28;20027;-83
2021/10/30 00:59:09;;;;;;;0.45;0.45;;;13.10;99.90;;;;;;5094393;28;20487;-83
2021/10/30 01:01:39;;;;;;;0.15;0.10;;;13.20;99.90;;;;;;5094557;28;20032;-83
2021/10/30 01:04:06;;;;;;;3.95;0.65;;;13.20;99.90;;;;;;5075094;28;20384;-83
2021/10/30 01:06:33;;;;;;;2.85;0.40;;;13.20;99.90;;;;;;5093908;28;20123;-83
2021/10/30 01:08:58;;;;;;;0.00;0.00;;;13.20;99.90;;;;;;5094277;28;20020;-83
2021/10/30 01:11:24;;;;;;;0.00;0.00;;;13.20;99.90;;;;;;5092769;28;20028;-82
2021/10/30 01:13:51;;;;;;;0.38;0.38;;;13.10;99.90;;;;;;5094272;28;20082;-83
2021/10/30 01:16:19;;;;;;;0.28;0.28;;;13.20;99.90;;;;;;5093739;28;20517;-83
2021/10/30 01:18:45;;;;;;;0.00;0.00;;;13.10;99.90;;;;;;5093974;28;20055;-83
2021/10/30 01:21:11;;;;;;;0.47;0.22;;;13.10;99.90;;;;;;5094088;28;20024;-83
2021/10/30 01:23:37;;;;;;;0.00;0.00;;;13.10;99.90;;;;;;5093991;28;20050;-83
2021/10/30 01:26:03;;;;;;;0.10;0.10;;;13.10;99.90;;;;;;5093830;28;20485;-83
2021/10/30 01:28:31;;;;;;;0.20;0.20;;;13.00;99.90;;;;;;5093764;28;20081;-83
2021/10/30 01:30:58;;;;;;;4.53;0.93;;;13.00;99.90;;;;;;5094052;28;20043;-83
2021/10/30 01:33:24;;;;;;;0.00;0.00;;;12.90;99.90;;;;;;5093507;28;20035;-83
2021/10/30 01:35:50;;;;;;;0.00;0.00;;;13.00;99.90;;;;;;5093685;28;20020;-83
2021/10/30 01:38:16;;;;;;;0.00;0.00;;;12.90;99.90;;;;;;5075428;28;20028;-83
2021/10/30 01:40:46;;;;;;;0.32;0.32;;;13.00;99.90;;;;;;5092488;28;20024;-84
2021/10/30 01:43:12;;;;;;;0.25;0.25;;;13.00;99.90;;;;;;5093444;28;20479;-84
2021/10/30 01:45:39;;;;;;;0.60;0.60;;;13.00;99.90;;;;;;5093703;28;20024;-84
2021/10/30 01:48:05;;;;;;;0.20;0.20;;;13.00;99.90;;;;;;5075186;28;20027;-84
2021/10/30 01:50:31;;;;;;;0.03;0.03;;;13.00;99.90;;;;;;5093267;28;20036;-84
2021/10/30 01:52:59;;;;;;;0.43;0.43;;;13.00;99.90;;;;;;5093395;28;20024;-83
2021/10/30 01:55:26;;;;;;;0.00;0.00;;;13.00;99.90;;;;;;5093326;28;20099;-83
2021/10/30 01:57:52;;;;;;;0.20;0.20;;;13.00;99.90;;;;;;5092721;28;20046;-84
2021/10/30 02:00:19;;;;;;;0.03;0.03;;;13.00;99.90;;;;;;5093177;28;20024;-84
2021/10/30 02:02:45;;;;;;;0.10;0.10;;;13.00;99.90;;;;;;5093495;28;20020;-84
2021/10/30 02:05:12;;;;;;;0.80;0.57;;;12.90;99.90;;;;;;5073983;28;20031;-84
2021/10/30 02:07:39;;;;;;;0.08;0.08;;;12.90;99.90;;;;;;5093177;28;20440;-85
2021/10/30 02:10:06;;;;;;;0.20;0.10;;;12.80;99.90;;;;;;5093036;28;20024;-84
2021/10/30 02:12:32;;;;;;;1.10;1.00;;;12.90;99.90;;;;;;5092788;28;20035;-84
2021/10/30 02:14:57;;;;;;;3.00;0.22;;;12.80;99.90;;;;;;5075090;28;20020;-84
2021/10/30 02:17:23;;;;;;;0.00;0.00;;;12.90;99.90;;;;;;5074818;28;20414;-84
2021/10/30 02:19:49;;;;;;;2.78;0.50;;;12.90;99.90;;;;;;5092945;28;20032;-84
2021/10/30 02:22:15;;;;;;;0.32;0.32;;;13.00;99.90;;;;;;5092923;28;20032;-84
2021/10/30 02:24:41;;;;;;;0.55;0.55;;;13.00;99.90;;;;;;5092865;28;20056;-84
2021/10/30 02:27:06;;;;;;;0.08;0.08;;;13.10;99.90;;;;;;5092786;28;20499;-85
2021/10/30 02:29:32;;;;;;;0.17;0.17;;;13.10;99.90;;;;;;5092920;28;20178;-84
2021/10/30 02:31:58;;;;;;;0.00;0.00;;;13.20;99.90;;;;;;5092972;28;20099;-85
2021/10/30 02:34:23;;;;;;;1.55;0.70;;;13.20;99.90;;;;;;5092769;28;20020;-84
2021/10/30 02:36:49;;;;;;;0.10;0.10;;;13.20;99.90;;;;;;5092665;28;20024;-85
2021/10/30 02:39:15;;;;;;;0.15;0.15;;;13.30;99.90;;;;;;5074488;28;20077;-85
2021/10/30 02:41:40;;;;;;;0.10;0.10;;;13.30;99.90;;;;;;5092555;28;20036;-85
2021/10/30 02:44:06;;;;;;;0.20;0.20;;;13.30;99.90;;;;;;5092822;28;20020;-85
2021/10/30 02:46:32;;;;;;;0.00;0.00;;;13.40;99.90;;;;;;5092568;28;20028;-84
2021/10/30 02:48:58;;;;;;;0.08;0.08;;;13.40;99.90;;;;;;5091975;28;20017;-85
2021/10/30 02:51:23;;;;;;;7.88;0.57;;;13.40;99.90;;;;;;5092119;28;20028;-84
2021/10/30 02:53:50;;;;;;;0.20;0.15;;;13.40;99.90;;;;;;5092652;28;20391;-85
2021/10/30 02:56:15;;;;;;;0.52;0.52;;;13.40;99.90;;;;;;5092369;28;20039;-84
2021/10/30 02:58:41;;;;;;;0.15;0.15;;;13.50;99.90;;;;;;5091987;28;20032;-85
2021/10/30 03:01:07;;;;;;;1.70;0.80;;;13.40;99.90;;;;;;5091818;28;20059;-85
2021/10/30 03:03:32;;;;;;;0.13;0.13;;;13.50;99.90;;;;;;5074394;28;20036;-85
2021/10/30 03:05:58;;;;;;;0.00;0.00;;;13.50;99.90;;;;;;5091275;28;20036;-84
2021/10/30 03:08:24;;;;;;;0.00;0.00;;;13.50;99.90;;;;;;5074112;28;20051;-85
2021/10/30 03:10:49;;;;;;;0.00;0.00;;;13.60;99.90;;;;;;5092590;28;20436;-85
2021/10/30 03:13:15;;;;;;;0.20;0.20;;;13.60;99.90;;;;;;5092179;28;20477;-84
2021/10/30 03:15:41;;;;;;;23.27;1.17;;;13.60;99.90;;;;;;5092447;28;20028;-84
2021/10/30 03:18:07;;;;;;;0.00;0.00;;;13.60;99.90;;;;;;5091874;28;20099;-84
2021/10/30 03:20:32;;;;;;;0.10;0.10;;;13.70;99.90;;;;;;5092202;28;20405;-84
2021/10/30 03:22:58;;;;;;;0.35;0.10;;;13.70;99.90;;;;;;5074085;28;20122;-84
2021/10/30 03:25:25;;;;;;;0.00;0.00;;;13.70;99.90;;;;;;5092098;28;20055;-85
2021/10/30 03:27:51;;;;;;;0.17;0.17;;;13.70;99.90;;;;;;5092157;28;20059;-84
2021/10/30 03:30:17;;;;;;;0.00;0.00;;;13.70;99.90;;;;;;5092435;28;20540;-84
2021/10/30 03:32:43;;;;;;;0.03;0.03;;;13.70;99.90;;;;;;5092246;28;20068;-84
2021/10/30 03:35:09;;;;;;;1.02;0.50;;;13.80;99.90;;;;;;5092026;28;20487;-84
2021/10/30 03:37:36;;;;;;;0.50;0.08;;;13.80;99.90;;;;;;5092242;28;20027;-84
2021/10/30 03:40:04;;;;;;;0.10;0.10;;;13.80;99.90;;;;;;5092382;28;20410;-84
2021/10/30 03:42:30;;;;;;;0.35;0.22;;;13.80;99.90;;;;;;5073790;28;20375;-84
2021/10/30 03:44:56;;;;;;;0.00;0.00;;;13.80;99.90;;;;;;5092304;28;20103;-84
2021/10/30 03:47:22;;;;;;;0.80;0.45;;;13.80;99.90;;;;;;5092120;28;20040;-85
2021/10/30 03:49:48;;;;;;;0.00;0.00;;;13.80;99.90;;;;;;5091730;28;20012;-84
2021/10/30 03:52:14;;;;;;;0.75;0.28;;;13.80;99.90;;;;;;5091282;28;20020;-84
2021/10/30 03:54:40;;;;;;;0.00;0.00;;;13.80;99.90;;;;;;5092103;28;20066;-84
2021/10/30 03:57:06;;;;;;;0.47;0.45;;;13.80;99.90;;;;;;5073724;28;20054;-84
2021/10/30 03:59:33;;;;;;;0.00;0.00;;;13.80;99.90;;;;;;5090742;28;20370;-84
2021/10/30 04:02:00;;;;;;;0.00;0.00;;;13.80;99.90;;;;;;5093270;28;20086;-84
2021/10/30 04:04:26;;;;;;;0.17;0.13;;;13.90;99.90;;;;;;5095273;28;20059;-84
2021/10/30 04:06:51;;;;;;;0.55;0.35;;;13.90;99.90;;;;;;5094106;28;20059;-84
2021/10/30 04:09:18;;;;;;;0.10;0.10;;;13.90;99.90;;;;;;5095616;28;20024;-84
2021/10/30 04:11:45;;;;;;;0.75;0.25;;;13.90;99.90;;;;;;5094005;28;20017;-84
2021/10/30 04:14:10;;;;;;;1.23;0.50;;;13.80;99.90;;;;;;5095271;28;20055;-84
2021/10/30 04:16:36;;;;;;;1.13;0.28;;;13.90;99.90;;;;;;5095106;28;20113;-85
2021/10/30 04:19:03;;;;;;;0.00;0.00;;;13.90;99.90;;;;;;5094613;28;20028;-85
2021/10/30 04:21:29;;;;;;;0.20;0.20;;;13.90;99.90;;;;;;5094317;28;20036;-85
2021/10/30 04:23:57;;;;;;;0.00;0.00;;;13.90;99.90;;;;;;5076955;28;20514;-85
2021/10/30 04:26:23;;;;;;;0.32;0.32;;;14.00;99.90;;;;;;5076665;28;20446;-85
2021/10/30 04:28:49;;;;;;;0.17;0.17;;;13.90;99.90;;;;;;5095256;28;20055;-85
2021/10/30 04:31:21;;;;;;;0.00;0.00;;;14.00;99.90;;;;;;5095089;28;20034;-85
2021/10/30 04:33:47;;;;;;;0.00;0.00;;;14.00;99.90;;;;;;5094940;28;20471;-84
2021/10/30 04:36:16;;;;;;;0.00;0.00;;;14.00;99.90;;;;;;5094632;28;20584;-85
2021/10/30 04:38:42;;;;;;;0.05;0.05;;;14.00;99.90;;;;;;5093776;28;20035;-85
2021/10/30 04:41:08;;;;;;;1.55;1.45;;;14.00;99.90;;;;;;5095153;28;20036;-85
2021/10/30 04:43:34;;;;;;;0.00;0.00;;;13.90;99.90;;;;;;5076379;28;20069;-85
2021/10/30 04:46:00;;;;;;;0.00;0.00;;;13.90;99.90;;;;;;5094843;28;20024;-85
2021/10/30 04:48:25;;;;;;;0.00;0.00;;;13.90;99.90;;;;;;5076259;28;20543;-85
2021/10/30 04:50:51;;;;;;;8.85;0.65;;;13.90;99.90;;;;;;5094524;28;20107;-85
2021/10/30 04:53:17;;;;;;;0.05;0.05;;;13.90;99.90;;;;;;5076375;28;20039;-85
2021/10/30 04:55:42;;;;;;;0.00;0.00;;;14.00;99.90;;;;;;5076613;28;20467;-85
2021/10/30 04:58:08;;;;;;;1.95;0.98;;;14.00;99.90;;;;;;5076048;28;20020;-85
2021/10/30 05:00:33;;;;;;;0.22;0.22;;;14.00;99.90;;;;;;5094580;28;20027;-85
2021/10/30 05:02:59;;;;;;;0.00;0.00;;;14.00;99.90;;;;;;5094392;28;20020;-85
2021/10/30 05:05:25;;;;;;;0.00;0.00;;;14.00;99.90;;;;;;5094058;28;20019;-86
2021/10/30 05:07:50;;;;;;;0.10;0.05;;;14.10;99.90;;;;;;5093215;28;20482;-85
2021/10/30 05:10:16;;;;;;;0.20;0.20;;;14.00;99.90;;;;;;5076145;28;20024;-85
2021/10/30 05:12:42;;;;;;;0.00;0.00;;;14.10;99.90;;;;;;5093735;28;20056;-84
2021/10/30 05:15:08;;;;;;;0.20;0.20;;;14.10;99.90;;;;;;5076055;28;20028;-85
2021/10/30 05:17:33;;;;;;;4.20;0.45;;;14.00;99.90;;;;;;5093893;28;20020;-85
2021/10/30 05:19:59;;;;;;;0.17;0.17;;;14.10;99.90;;;;;;5076125;28;20391;-85
2021/10/30 05:22:25;;;;;;;0.10;0.10;;;14.00;99.90;;;;;;5075830;28;20478;-86
2021/10/30 05:24:50;;;;;;;1.35;0.52;;;14.00;99.90;;;;;;5094012;28;20059;-86
2021/10/30 05:27:16;;;;;;;0.08;0.08;;;14.00;99.90;;;;;;5093814;28;20394;-86
2021/10/30 05:29:42;;;;;;;0.00;0.00;;;14.00;99.90;;;;;;5093268;28;20424;-86
2021/10/30 05:32:08;;;;;;;1.65;0.10;;;14.00;99.90;;;;;;5094179;28;20027;-85
2021/10/30 05:34:34;;;;;;;0.10;0.10;;;14.00;99.90;;;;;;5093751;28;20034;-86
2021/10/30 05:37:00;;;;;;;0.00;0.00;;;13.90;99.90;;;;;;5093696;28;20028;-86
2021/10/30 05:39:25;;;;;;;0.00;0.00;;;13.90;99.90;;;;;;5093856;28;20028;-86
2021/10/30 05:41:51;;;;;;;0.00;0.00;;;13.90;99.90;;;;;;5093670;28;20098;-86
2021/10/30 05:44:17;;;;;;;0.00;0.00;;;13.90;99.90;;;;;;5093903;28;20121;-86
2021/10/30 05:46:43;;;;;;;0.17;0.13;;;13.90;99.90;;;;;;5093604;28;20376;-86
2021/10/30 05:49:10;;;;;;;0.00;0.00;;;13.90;99.90;;;;;;5093507;28;20050;-86
2021/10/30 05:51:36;;;;;;;0.15;0.15;;;13.90;99.90;;;;;;5092184;28;20013;-86
2021/10/30 05:54:03;;;;;;;0.00;0.00;;;13.80;99.90;;;;;;5093540;28;20372;-86
2021/10/30 05:56:29;;;;;;;0.10;0.10;;;13.80;99.90;;;;;;5075113;28;20431;-85
2021/10/30 05:58:55;;;;;;;0.00;0.00;;;13.80;99.90;;;;;;5093042;28;20375;-86
2021/10/30 06:01:22;;;;;;;0.00;0.00;;;13.80;99.90;;;;;;5093398;28;20081;-86
2021/10/30 06:03:48;;;;;;;0.00;0.00;;;13.80;99.90;;;;;;5093596;28;20560;-86
2021/10/30 06:06:13;;;;;;;0.00;0.00;;;13.80;99.90;;;;;;5093091;28;20024;-85
2021/10/30 06:08:41;;;;;;;0.00;0.00;;;13.90;99.90;;;;;;5092092;28;20074;-86
2021/10/30 06:11:07;;;;;;;0.52;0.35;;;13.90;99.90;;;;;;5093278;28;20095;-86
2021/10/30 06:13:33;;;;;;;0.00;0.00;;;13.90;99.90;;;;;;5092984;28;20517;-86
2021/10/30 06:15:59;;;;;;;0.20;0.20;;;13.90;99.90;;;;;;5093104;28;20109;-86
2021/10/30 06:18:24;;;;;;;1.02;0.80;;;13.90;99.90;;;;;;5092796;28;20092;-86
2021/10/30 06:20:50;;;;;;;0.00;0.00;;;14.00;99.90;;;;;;5092890;28;20069;-86
2021/10/30 06:23:16;;;;;;;0.00;0.00;;;14.00;99.90;;;;;;5092748;28;20028;-85
2021/10/30 06:25:43;;;;;;;1.35;0.98;;;14.00;99.90;;;;;;5092937;28;20052;-85
2021/10/30 06:28:10;;;;;;;0.52;0.30;;;13.90;99.90;;;;;;5092684;28;20021;-86
2021/10/30 06:30:35;;;;;;;0.43;0.25;;;14.00;99.90;;;;;;5091816;28;20095;-86
2021/10/30 06:33:01;;;;;;;0.17;0.17;;;14.00;99.90;;;;;;5092655;28;20427;-85
2021/10/30 06:35:26;;;;;;;0.00;0.00;;;14.00;99.90;;;;;;5092793;28;20020;-85
2021/10/30 06:37:52;;;;;;;0.08;0.08;;;14.00;99.90;;;;;;5092807;28;20110;-85
2021/10/30 06:40:20;;;;;;;0.00;0.00;;;13.90;99.90;;;;;;5092800;28;20505;-85
2021/10/30 06:42:46;;;;;;;0.05;0.05;;;13.90;99.90;;;;;;5092781;28;20051;-85
2021/10/30 06:45:12;;;;;;;0.10;0.10;;;13.90;99.90;;;;;;5092483;28;20478;-85
2021/10/30 06:47:38;;;;;;;0.00;0.00;;;13.80;99.90;;;;;;5092606;28;20542;-84
2021/10/30 06:50:05;;;;;;;0.00;0.00;;;13.80;99.90;;;;;;5092262;28;20104;-85
2021/10/30 06:52:36;;;;;;;0.17;0.17;;;13.90;99.90;;;;;;5074057;28;20532;-86
2021/10/30 06:55:09;;;;;;;0.08;0.08;;;13.90;99.90;;;;;;5092514;28;20027;-85
2021/10/30 06:57:36;;;;;;;0.00;0.00;;;13.90;99.90;;;;;;5092208;28;20032;-85
2021/10/30 07:00:05;;;;;;;0.00;0.00;;;13.90;99.90;;;;;;5092431;28;20036;-85
2021/10/30 07:02:32;;;;;;;0.38;0.32;;;14.00;99.90;;;;;;5074437;28;20062;-85
2021/10/30 07:04:58;;;;;;;0.30;0.30;;;14.00;99.90;;;;;;5074340;28;20024;-85
2021/10/30 07:07:24;;;;;;;0.28;0.13;;;14.00;99.90;;;;;;5091463;28;20532;-86
2021/10/30 07:09:50;;;;;;;0.00;0.00;;;14.00;99.90;;;;;;5072869;28;20020;-85
2021/10/30 07:12:16;;;;;;;0.40;0.30;;;14.00;99.90;;;;;;5091962;28;20391;-84
2021/10/30 07:14:41;;;;;;;0.17;0.17;;;14.00;99.90;;;;;;5092455;28;20020;-85
2021/10/30 07:17:07;;;;;;;0.00;0.00;;;14.10;99.90;;;;;;5090744;28;20097;-84
2021/10/30 07:19:33;;;;;;;0.20;0.20;;;14.10;99.90;;;;;;5092311;28;20487;-85
2021/10/30 07:21:59;;;;;;;0.43;0.28;;;14.10;99.90;;;;;;5074360;28;20031;-85
2021/10/30 07:24:25;;;;;;;0.00;0.00;;;14.10;99.90;;;;;;5092065;28;20049;-85
2021/10/30 07:26:50;;;;;;;1.13;0.30;;;14.10;99.90;;;;;;5092236;28;20044;-85
2021/10/30 07:29:16;;;;;;;0.10;0.10;;;14.00;99.90;;;;;;5073807;28;20398;-85
2021/10/30 07:31:42;;;;;;;0.00;0.00;;;13.90;99.90;;;;;;5074270;28;20039;-84
2021/10/30 07:34:08;;;;;;;0.00;0.00;;;13.90;99.90;;;;;;5092245;28;20026;-85
2021/10/30 07:36:34;;;;;;;0.38;0.20;;;13.90;99.90;;;;;;5095317;28;20036;-85
2021/10/30 07:38:59;;;;;;;0.00;0.00;;;13.90;99.90;;;;;;5096234;28;20526;-86
2021/10/30 07:41:25;;;;;;;0.03;0.00;;;14.00;99.90;;;;;;5095789;28;20047;-86
2021/10/30 07:43:54;;;;;;;0.00;0.00;;;14.10;99.90;;;;;;5077855;28;20032;-85
2021/10/30 07:46:24;;;;;;;0.10;0.10;;;14.20;99.90;;;;;;5095793;28;20079;-85
2021/10/30 07:48:52;;;;;;;0.50;0.40;;;14.40;99.90;;;;;;5095901;28;20012;-85
2021/10/30 07:51:18;;;;;;;0.80;0.22;;;14.50;99.90;;;;;;5095303;28;20024;-85
2021/10/30 07:53:44;;;;;;;0.00;0.00;;;14.70;99.90;;;;;;5095911;28;20027;-85
2021/10/30 07:56:10;;;;;;;0.20;0.20;;;14.90;99.90;;;;;;5095800;28;20024;-86
2021/10/30 07:58:36;;;;;;;0.00;0.00;;;15.10;99.90;;;;;;5095235;28;20375;-85
2021/10/30 08:01:01;;;;;;;0.00;0.00;;;15.00;99.90;;;;;;5095720;28;20082;-85
2021/10/30 08:03:27;;;;;;;0.00;0.00;;;14.80;99.90;;;;;;5077785;28;20028;-85
2021/10/30 08:05:53;;;;;;;0.35;0.20;;;14.90;99.90;;;;;;5095633;28;20027;-85
2021/10/30 08:08:18;;;;;;;3.00;0.22;;;14.80;99.90;;;;;;5094062;28;20035;-86
2021/10/30 08:10:44;;;;;;;0.00;0.00;;;14.70;99.90;;;;;;5095480;28;20024;-84
2021/10/30 08:13:11;;;;;;;0.15;0.15;;;14.60;99.90;;;;;;5095273;28;20024;-84
2021/10/30 08:15:37;;;;;;;0.35;0.35;;;14.70;99.90;;;;;;5095262;28;20024;-85
2021/10/30 08:18:03;;;;;;;0.52;0.38;;;14.80;99.90;;;;;;5095118;28;20030;-84
2021/10/30 08:20:28;;;;;;;1.75;0.30;;;14.90;99.90;;;;;;5077056;28;20032;-85
2021/10/30 08:22:54;;;;;;;15.88;0.35;;;15.00;99.90;;;;;;5094874;28;20020;-86
2021/10/30 08:25:20;;;;;;;0.30;0.30;;;15.10;99.90;;;;;;5095033;28;20059;-84
2021/10/30 08:27:45;;;;;;;0.17;0.10;;;15.00;99.90;;;;;;5076710;28;20073;-85
2021/10/30 08:30:12;;;;;;;0.43;0.43;;;15.00;99.90;;;;;;5095020;28;20024;-85
2021/10/30 08:32:37;;;;;;;3.47;0.32;;;14.90;99.90;;;;;;5095098;28;20023;-86
2021/10/30 08:35:03;;;;;;;0.00;0.00;;;15.00;99.90;;;;;;5094936;28;20016;-84
2021/10/30 08:37:29;;;;;;;0.00;0.00;;;15.30;99.90;;;;;;5095204;28;20020;-84
2021/10/30 08:39:55;;;;;;;0.10;0.10;;;15.80;99.90;;;;;;5095130;28;20126;-84
2021/10/30 08:42:22;;;;;;;0.43;0.40;;;16.10;99.90;;;;;;5076690;28;20517;-84
2021/10/30 08:44:49;;;;;;;0.10;0.10;;;16.30;99.90;;;;;;5095148;28;20510;-85
2021/10/30 08:47:19;;;;;;;0.40;0.40;;;16.30;99.90;;;;;;5094306;28;20028;-85
2021/10/30 08:49:45;;;;;;;0.38;0.13;;;16.20;99.90;;;;;;5093283;28;20111;-84
2021/10/30 08:52:10;;;;;;;10.32;0.55;;;16.00;99.90;;;;;;5094306;28;20111;-84
2021/10/30 08:54:37;;;;;;;0.10;0.10;;;15.60;99.90;;;;;;5094912;28;20027;-84
2021/10/30 08:57:03;;;;;;;0.15;0.15;;;15.40;99.90;;;;;;5094669;28;20032;-86
2021/10/30 08:59:45;;;;;;;0.10;0.10;;;15.20;99.90;;;;;;5094573;28;20119;-86
2021/10/30 09:02:28;;;;;;;0.00;0.00;;;15.20;99.90;;;;;;5094722;28;20027;-84
2021/10/30 09:05:28;;;;;;;0.90;0.65;;;15.10;99.90;;;;;;5076275;28;20402;-85
2021/10/30 09:07:58;;;;;;;0.00;0.00;;;15.30;99.90;;;;;;5039993;28;20055;-85
2021/10/30 09:10:26;;;;;;;1.55;0.32;;;15.50;99.90;;;;;;5093118;28;20126;-85
2021/10/30 09:12:54;;;;;;;0.75;0.55;;;15.60;99.90;;;;;;5075816;28;20024;-85
2021/10/30 09:15:33;;;;;;;0.15;0.15;;;15.80;99.90;;;;;;5075304;28;20141;-85
2021/10/30 09:18:00;;;;;;;0.55;0.55;;;15.90;99.90;;;;;;5075980;28;20055;-85
2021/10/30 09:20:34;;;;;;;0.00;0.00;;;15.90;99.90;;;;;;5093740;28;20390;-85
2021/10/30 09:22:59;;;;;;;0.10;0.10;;;16.10;99.90;;;;;;5094056;28;20487;-84
2021/10/30 09:25:25;;;;;;;0.00;0.00;;;16.20;99.90;;;;;;5093699;28;20059;-84
2021/10/30 09:28:02;;;;;;;0.00;0.00;;;16.30;99.90;;;;;;5075799;28;20028;-86
2021/10/30 09:30:34;;;;;;;0.10;0.10;;;16.40;99.90;;;;;;5094112;28;20043;-85
2021/10/30 09:33:10;;;;;;;0.10;0.10;;;16.30;99.90;;;;;;5094275;28;20470;-83
2021/10/30 09:35:44;;;;;;;0.00;0.00;;;16.20;99.90;;;;;;5075455;28;20028;-85
2021/10/30 09:38:26;;;;;;;0.17;0.15;;;16.10;99.90;;;;;;5092174;28;20563;-85
2021/10/30 09:40:52;;;;;;;0.00;0.00;;;16.20;99.90;;;;;;5093902;28;20560;-84
2021/10/30 09:43:21;;;;;;;0.00;0.00;;;16.20;99.90;;;;;;5093605;28;20032;-86
2021/10/30 09:46:02;;;;;;;0.00;0.00;;;16.30;99.90;;;;;;5093647;28;20024;-84
2021/10/30 09:48:31;;;;;;;1.80;0.85;;;16.50;99.90;;;;;;5093306;28;20110;-85
2021/10/30 09:50:59;;;;;;;0.03;0.03;;;16.60;99.90;;;;;;5093400;28;20020;-83
2021/10/30 09:53:34;;;;;;;0.10;0.00;;;16.70;99.90;;;;;;5093281;28;20035;-85
2021/10/30 09:56:11;;;;;;;0.00;0.00;;;16.70;99.90;;;;;;5075433;28;20405;-84
2021/10/30 09:58:47;;;;;;;0.15;0.03;;;16.70;99.90;;;;;;5093144;28;20055;-84
2021/10/30 10:01:15;;;;;;;0.00;0.00;;;16.80;99.90;;;;;;5092644;28;20483;-84
2021/10/30 10:03:42;;;;;;;0.22;0.20;;;16.90;99.90;;;;;;5075367;28;20087;-84
2021/10/30 10:06:10;;;;;;;0.00;0.00;;;17.00;99.90;;;;;;5075078;28;20019;-81
2021/10/30 10:08:38;;;;;;;0.52;0.52;;;17.20;99.90;;;;;;5093108;28;20029;-85
2021/10/30 10:11:15;;;;;;;0.13;0.13;;;17.20;99.90;;;;;;5073786;28;20058;-84
2021/10/30 10:13:43;;;;;;;0.00;0.00;;;17.30;99.90;;;;;;5075225;28;20057;-84
2021/10/30 10:16:12;;;;;;;0.88;0.85;;;17.40;99.90;;;;;;5074855;28;20027;-85
2021/10/30 10:18:39;;;;;;;0.00;0.00;;;17.40;99.90;;;;;;5093120;28;20020;-85
2021/10/30 10:21:06;;;;;;;0.00;0.00;;;17.50;99.90;;;;;;5058314;28;20554;-84
2021/10/30 10:23:33;;;;;;;10.25;1.50;;;17.60;99.90;;;;;;5092841;28;20034;-84
2021/10/30 10:26:00;;;;;;;0.10;0.10;;;17.70;99.90;;;;;;5093041;28;20036;-84
2021/10/30 10:28:34;;;;;;;0.15;0.15;;;17.60;99.90;;;;;;5092610;28;20483;-83
2021/10/30 10:31:23;;;;;;;1.08;0.75;;;17.70;99.90;;;;;;5092914;28;20048;-84
2021/10/30 10:34:15;;;;;;;0.00;0.00;;;17.40;99.90;;;;;;5093215;28;20020;-84
2021/10/30 10:36:42;;;;;;;0.22;0.22;;;17.60;99.90;;;;;;5092593;28;20032;-84
2021/10/30 10:39:07;;;;;;;0.40;0.40;;;17.90;99.90;;;;;;5092982;28;20024;-84
2021/10/30 10:41:46;;;;;;;0.08;0.08;;;17.90;99.90;;;;;;5092714;28;20378;-83
2021/10/30 10:44:27;;;;;;;0.60;0.60;;;17.90;99.90;;;;;;5092959;28;20097;-83
2021/10/30 10:46:58;;;;;;;1.00;0.85;;;17.90;99.90;;;;;;5092870;28;20061;-84
2021/10/30 10:49:34;;;;;;;0.38;0.10;;;17.70;99.90;;;;;;5092639;28;20019;-83
2021/10/30 10:52:14;;;;;;;0.55;0.55;;;17.40;99.90;;;;;;5092014;28;20478;-83
2021/10/30 10:54:52;;;;;;;1.95;0.75;;;17.30;99.90;;;;;;5075080;28;20035;-84
2021/10/30 10:57:24;;;;;;;0.00;0.00;;;17.40;99.90;;;;;;5092207;28;20039;-84
2021/10/30 11:00:05;;;;;;;0.00;0.00;;;17.30;99.90;;;;;;5093165;28;20028;-84
2021/10/30 11:02:35;;;;;;;0.00;0.00;;;17.30;99.90;;;;;;5092505;28;20672;-84
2021/10/30 11:05:07;;;;;;;0.13;0.13;;;17.20;99.90;;;;;;5092295;28;20032;-84
2021/10/30 11:07:34;;;;;;;0.00;0.00;;;17.10;99.90;;;;;;5074158;28;20119;-84
2021/10/30 11:10:30;;;;;;;0.00;0.00;;;17.20;99.90;;;;;;5092006;28;20035;-84
2021/10/30 11:13:01;;;;;;;0.00;0.00;;;17.10;99.90;;;;;;5088817;28;20095;-84
2021/10/30 11:15:29;;;;;;;0.00;0.00;;;17.10;99.90;;;;;;5078328;28;20483;-80
2021/10/30 11:18:10;;;;;;;0.05;0.05;;;17.10;99.90;;;;;;5096345;28;20028;-84
2021/10/30 11:20:38;;;;;;;0.00;0.00;;;17.00;99.90;;;;;;5078331;28;20052;-84
2021/10/30 11:23:10;;;;;;;0.00;0.00;;;16.90;99.90;;;;;;5096225;28;20104;-84
2021/10/30 11:25:36;;;;;;;3.75;0.13;;;16.90;99.90;;;;;;5096326;28;20052;-84
2021/10/30 11:28:02;;;;;;;0.00;0.00;;;17.10;99.90;;;;;;5096139;28;20114;-85
2021/10/30 11:30:34;;;;;;;0.00;0.00;;;17.30;99.90;;;;;;5096469;28;20107;-84
2021/10/30 11:33:19;;;;;;;0.00;0.00;;;17.20;99.90;;;;;;5077832;28;20393;-84
2021/10/30 11:36:05;;;;;;;0.00;0.00;;;17.30;99.90;;;;;;5077829;28;20058;-84
2021/10/30 11:38:35;;;;;;;0.00;0.00;;;17.40;99.90;;;;;;5096197;28;20012;-84
2021/10/30 11:41:04;;;;;;;0.00;0.00;;;17.50;99.90;;;;;;5096360;28;20506;-84
2021/10/30 11:43:31;;;;;;;0.00;0.00;;;17.50;99.90;;;;;;5096027;28;20028;-85
2021/10/30 11:46:02;;;;;;;0.00;0.00;;;17.60;99.90;;;;;;5096326;28;20024;-85
2021/10/30 11:48:50;;;;;;;1.38;0.35;;;17.80;99.90;;;;;;5095714;28;20356;-85
2021/10/30 11:51:18;;;;;;;0.00;0.00;;;17.90;99.90;;;;;;5095005;28;20063;-84
2021/10/30 11:53:47;;;;;;;0.00;0.00;;;17.60;99.90;;;;;;5095953;28;20016;-86
2021/10/30 11:56:14;;;;;;;0.00;0.00;;;17.10;99.90;;;;;;5095892;28;20363;-84
2021/10/30 11:58:41;;;;;;;0.00;0.00;;;16.90;99.90;;;;;;5077819;28;20515;-86
2021/10/30 12:01:20;;;;;;;0.00;0.00;;;16.80;99.90;;;;;;5095841;28;20028;-85
2021/10/30 12:03:47;;;;;;;0.00;0.00;;;16.50;99.90;;;;;;5077451;28;20028;-85
2021/10/30 12:06:13;;;;;;;0.00;0.00;;;16.50;99.90;;;;;;5076144;28;20035;-85
2021/10/30 12:08:40;;;;;;;0.00;0.00;;;16.50;99.90;;;;;;5077237;28;20024;-85
2021/10/30 12:11:06;;;;;;;0.00;0.00;;;16.60;99.90;;;;;;5076238;28;20030;-85
2021/10/30 12:13:33;;;;;;;0.00;0.00;;;17.10;99.90;;;;;;5095384;28;20016;-85
2021/10/30 12:16:03;;;;;;;0.00;0.00;;;17.40;99.90;;;;;;5095422;28;20024;-85
2021/10/30 12:18:32;;;;;;;0.00;0.00;;;17.30;99.90;;;;;;5094945;28;20025;-85
2021/10/30 12:20:59;;;;;;;0.00;0.00;;;17.10;99.90;;;;;;5095355;28;20016;-85
2021/10/30 12:23:26;;;;;;;0.00;0.00;;;17.00;99.90;;;;;;5094306;28;20024;-85
2021/10/30 12:26:01;;;;;;;0.00;0.00;;;17.20;99.90;;;;;;5095395;28;20082;-86
2021/10/30 12:28:37;;;;;;;21.30;0.25;;;17.60;99.90;;;;;;5095048;28;20024;-86
2021/10/30 12:31:10;;;;;;;0.10;0.10;;;17.40;99.90;;;;;;5095164;28;20570;-86
2021/10/30 12:33:36;;;;;;;0.00;0.00;;;17.40;99.90;;;;;;5093712;28;20028;-86
2021/10/30 12:36:07;;;;;;;0.00;0.00;;;17.60;99.90;;;;;;5076948;28;20024;-87
2021/10/30 12:38:36;;;;;;;0.00;0.00;;;17.90;99.90;;;;;;5094975;28;20051;-85
2021/10/30 12:41:14;;;;;;;0.00;0.00;;;18.10;99.90;;;;;;5095072;28;20035;-86
2021/10/30 12:43:42;;;;;;;0.43;0.43;;;18.40;99.90;;;;;;5095156;28;20016;-86
2021/10/30 12:46:08;;;;;;;0.00;0.00;;;18.20;99.90;;;;;;5076693;28;20028;-86
2021/10/30 12:48:52;;;;;;;0.00;0.00;;;17.90;99.90;;;;;;5094551;28;20043;-85